createdAt,value
2022-11-12T00:00:56.661Z,8.5
2022-11-12T00:02:56.253Z,8.6
2022-11-12T00:04:56.347Z,8.6
2022-11-12T00:06:56.481Z,8.6
2022-11-12T00:08:56.560Z,8.6
2022-11-12T00:10:56.579Z,8.6
2022-11-12T00:12:56.893Z,8.6
2022-11-12T00:14:56.864Z,8.6
2022-11-12T00:16:56.902Z,8.6
2022-11-12T00:18:57.127Z,8.6
2022-11-12T00:20:57.175Z,8.6
2022-11-12T00:22:57.227Z,8.6
2022-11-12T00:24:57.506Z,8.6
2022-11-12T00:26:57.443Z,8.8
2022-11-12T00:28:57.776Z,8.8
2022-11-12T00:30:57.757Z,8.8
2022-11-12T00:32:57.767Z,8.8
2022-11-12T00:35:01.386Z,8.7
2022-11-12T00:36:57.932Z,8.7
2022-11-12T00:38:58.131Z,8.7
2022-11-12T00:40:58.046Z,8.7
2022-11-12T00:42:58.222Z,8.7
2022-11-12T00:44:58.257Z,8.7
2022-11-12T00:46:58.627Z,8.7
2022-11-12T00:48:58.986Z,8.7
2022-11-12T00:50:58.591Z,8.7
2022-11-12T00:52:58.602Z,8.7
2022-11-12T00:54:58.739Z,8.7
2022-11-12T00:57:00.617Z,8.7
2022-11-12T00:58:58.878Z,8.8
2022-11-12T01:00:59.114Z,8.8
2022-11-12T01:02:59.192Z,8.8
2022-11-12T01:04:59.150Z,8.8
2022-11-12T01:06:59.400Z,8.8
2022-11-12T01:09:00.293Z,8.7
2022-11-12T01:10:59.553Z,8.7
2022-11-12T01:12:59.636Z,8.7
2022-11-12T01:14:59.657Z,8.7
2022-11-12T01:16:59.843Z,8.7
2022-11-12T01:19:00.632Z,8.7
2022-11-12T01:21:00.132Z,8.7
2022-11-12T01:23:00.131Z,8.7
2022-11-12T01:25:00.156Z,8.7
2022-11-12T01:27:01.564Z,8.9
2022-11-12T01:29:00.623Z,8.9
2022-11-12T01:31:00.655Z,8.9
2022-11-12T01:33:00.535Z,8.8
2022-11-12T01:35:00.682Z,8.8
2022-11-12T01:37:00.808Z,8.9
2022-11-12T01:39:01.774Z,8.9
2022-11-12T01:41:00.921Z,8.9
2022-11-12T01:43:06.578Z,8.9
2022-11-12T01:45:01.161Z,8.9
2022-11-12T01:47:12.967Z,8.9
2022-11-12T01:49:07.770Z,8.9
2022-11-12T01:51:01.852Z,8.9
2022-11-12T01:53:04.870Z,8.9
2022-11-12T01:55:04.268Z,8.9
2022-11-12T01:57:04.019Z,8.9
2022-11-12T01:59:06.745Z,8.9
2022-11-12T02:01:02.899Z,8.9
2022-11-12T02:03:07.172Z,8.9
2022-11-12T02:05:03.365Z,8.9
2022-11-12T02:07:04.091Z,8.9
2022-11-12T02:09:02.775Z,8.9
2022-11-12T02:11:02.788Z,8.9
2022-11-12T02:13:04.311Z,8.9
2022-11-12T02:15:02.702Z,8.9
2022-11-12T02:17:03.403Z,8.9
2022-11-12T02:19:02.846Z,8.9
2022-11-12T02:21:08.581Z,8.9
2022-11-12T02:23:03.080Z,8.9
2022-11-12T02:25:03.139Z,8.9
2022-11-12T02:27:07.712Z,9
2022-11-12T02:29:03.498Z,9
2022-11-12T02:31:04.162Z,9
2022-11-12T02:33:03.541Z,9
2022-11-12T02:35:03.876Z,8.9
2022-11-12T02:37:03.817Z,8.9
2022-11-12T02:39:04.095Z,8.8
2022-11-12T02:41:04.107Z,8.8
2022-11-12T02:43:04.212Z,8.8
2022-11-12T02:45:04.367Z,8.8
2022-11-12T02:47:04.353Z,8.8
2022-11-12T02:49:04.519Z,8.9
2022-11-12T02:51:04.635Z,8.9
2022-11-12T02:53:04.751Z,9.1
2022-11-12T02:55:04.790Z,9.1
2022-11-12T02:57:04.910Z,9.3
2022-11-12T02:59:04.993Z,9.2
2022-11-12T03:01:05.550Z,9.2
2022-11-12T03:03:05.254Z,9.2
2022-11-12T03:05:05.379Z,9.2
2022-11-12T03:07:05.518Z,9.2
2022-11-12T03:09:05.666Z,9.1
2022-11-12T03:11:05.956Z,9.1
2022-11-12T03:13:05.805Z,9.1
2022-11-12T03:15:06.051Z,9.1
2022-11-12T03:17:06.033Z,9
2022-11-12T03:19:06.452Z,9
2022-11-12T03:21:06.264Z,9
2022-11-12T03:23:10.496Z,9
2022-11-12T03:25:06.415Z,9
2022-11-12T03:27:06.528Z,9
2022-11-12T03:29:06.875Z,9
2022-11-12T03:31:11.781Z,9
2022-11-12T03:33:07.329Z,9
2022-11-12T03:35:07.232Z,9
2022-11-12T03:37:07.102Z,9
2022-11-12T03:39:07.274Z,9.1
2022-11-12T03:41:07.320Z,9.1
2022-11-12T03:43:07.830Z,9.1
2022-11-12T03:45:07.577Z,9.1
2022-11-12T03:47:07.689Z,9.1
2022-11-12T03:49:07.836Z,9
2022-11-12T03:51:11.997Z,9
2022-11-12T03:53:10.213Z,9.2
2022-11-12T03:55:08.152Z,9.2
2022-11-12T03:57:08.214Z,9.2
2022-11-12T03:59:08.393Z,9.1
2022-11-12T04:01:08.660Z,9.2
2022-11-12T04:03:08.782Z,9.2
2022-11-12T04:05:08.834Z,9.1
2022-11-12T04:07:08.986Z,9.1
2022-11-12T04:09:09.054Z,9.1
2022-11-12T04:11:09.612Z,9.1
2022-11-12T04:13:09.310Z,9.1
2022-11-12T04:15:09.330Z,9.1
2022-11-12T04:17:09.524Z,9.1
2022-11-12T04:19:11.457Z,9.1
2022-11-12T04:21:09.654Z,9.1
2022-11-12T04:23:09.844Z,9.1
2022-11-12T04:25:09.902Z,9.1
2022-11-12T04:27:10.027Z,9.1
2022-11-12T04:29:10.194Z,9.1
2022-11-12T04:31:10.368Z,9.1
2022-11-12T04:33:10.302Z,9.1
2022-11-12T04:35:11.138Z,9.1
2022-11-12T04:37:10.562Z,9.1
2022-11-12T04:39:10.751Z,9.1
2022-11-12T04:41:10.798Z,9.1
2022-11-12T04:43:11.005Z,9.1
2022-11-12T04:45:11.099Z,9.2
2022-11-12T04:47:11.249Z,9.2
2022-11-12T04:49:11.291Z,9.2
2022-11-12T04:51:14.650Z,9.2
2022-11-12T04:53:11.546Z,9.2
2022-11-12T04:55:12.259Z,9.2
2022-11-12T04:57:12.020Z,9.2
2022-11-12T04:59:11.990Z,9.3
2022-11-12T05:01:12.328Z,9.3
2022-11-12T05:03:12.228Z,9.3
2022-11-12T05:05:12.422Z,9.3
2022-11-12T05:07:13.508Z,9.3
2022-11-12T05:09:12.726Z,9.2
2022-11-12T05:11:13.149Z,9.2
2022-11-12T05:13:13.650Z,9.3
2022-11-12T05:15:13.034Z,9.3
2022-11-12T05:17:13.482Z,9.3
2022-11-12T05:19:13.640Z,9.3
2022-11-12T05:21:13.465Z,9.3
2022-11-12T05:23:13.870Z,9.3
2022-11-12T05:25:13.811Z,9.3
2022-11-12T05:27:13.895Z,9.3
2022-11-12T05:29:14.156Z,9.4
2022-11-12T05:31:14.103Z,9.4
2022-11-12T05:33:14.412Z,9.4
2022-11-12T05:35:14.507Z,9.4
2022-11-12T05:37:16.016Z,9.4
2022-11-12T05:39:14.820Z,9.4
2022-11-12T05:41:19.773Z,9.4
2022-11-12T05:43:14.896Z,9.4
2022-11-12T05:45:15.014Z,9.4
2022-11-12T05:47:15.213Z,9.4
2022-11-12T05:49:15.309Z,9.5
2022-11-12T05:51:15.437Z,9.5
2022-11-12T05:53:15.579Z,9.5
2022-11-12T05:55:15.688Z,9.5
2022-11-12T05:57:15.784Z,9.5
2022-11-12T05:59:17.197Z,9.6
2022-11-12T06:01:16.863Z,9.6
2022-11-12T06:03:16.297Z,9.6
2022-11-12T06:05:16.396Z,9.6
2022-11-12T06:07:16.592Z,9.6
2022-11-12T06:09:16.834Z,9.5
2022-11-12T06:11:16.978Z,9.5
2022-11-12T06:13:17.187Z,9.5
2022-11-12T06:15:17.187Z,9.5
2022-11-12T06:17:17.298Z,9.7
2022-11-12T06:19:17.801Z,9.7
2022-11-12T06:21:19.358Z,9.7
2022-11-12T06:23:18.360Z,9.7
2022-11-12T06:25:18.180Z,9.7
2022-11-12T06:27:18.101Z,9.7
2022-11-12T06:29:18.172Z,9.8
2022-11-12T06:31:18.516Z,9.8
2022-11-12T06:33:18.594Z,9.8
2022-11-12T06:35:19.057Z,9.8
2022-11-12T06:37:18.787Z,9.8
2022-11-12T06:39:19.194Z,9.8
2022-11-12T06:41:20.251Z,9.8
2022-11-12T06:43:19.229Z,9.8
2022-11-12T06:45:20.592Z,9.8
2022-11-12T06:47:19.633Z,9.9
2022-11-12T06:49:20.144Z,9.8
2022-11-12T06:51:30.432Z,9.8
2022-11-12T06:53:20.034Z,9.8
2022-11-12T06:55:20.924Z,9.8
2022-11-12T06:57:20.251Z,9.8
2022-11-12T06:59:20.464Z,9.9
2022-11-12T07:01:22.822Z,9.9
2022-11-12T07:03:21.513Z,9.9
2022-11-12T07:05:21.509Z,9.9
2022-11-12T07:07:20.979Z,9.9
2022-11-12T07:09:21.613Z,9.9
2022-11-12T07:11:22.233Z,9.9
2022-11-12T07:13:21.352Z,9.9
2022-11-12T07:15:21.991Z,9.9
2022-11-12T07:17:21.770Z,10
2022-11-12T07:19:22.069Z,10
2022-11-12T07:21:24.744Z,10
2022-11-12T07:23:22.094Z,10
2022-11-12T07:25:22.963Z,10
2022-11-12T07:27:22.394Z,10
2022-11-12T07:29:42.734Z,10
2022-11-12T07:31:26.323Z,10
2022-11-12T07:33:22.820Z,10
2022-11-12T07:35:23.446Z,10
2022-11-12T07:37:23.179Z,10.1
2022-11-12T07:39:23.534Z,10.2
2022-11-12T07:41:25.726Z,10.2
2022-11-12T07:43:23.594Z,10.2
2022-11-12T07:45:24.723Z,10.2
2022-11-12T07:47:23.925Z,10.2
2022-11-12T07:49:24.244Z,10.2
2022-11-12T07:51:27.795Z,10.3
2022-11-12T07:53:24.385Z,10.3
2022-11-12T07:55:24.648Z,10.3
2022-11-12T07:57:24.704Z,10.3
2022-11-12T07:59:24.965Z,10.3
2022-11-12T08:01:34.797Z,10.4
2022-11-12T08:03:25.214Z,10.4
2022-11-12T08:05:25.392Z,10.4
2022-11-12T08:07:25.621Z,10.3
2022-11-12T08:09:25.683Z,10.3
2022-11-12T08:11:26.090Z,10.3
2022-11-12T08:13:25.998Z,10.4
2022-11-12T08:15:26.097Z,10.4
2022-11-12T08:17:26.483Z,10.4
2022-11-12T08:19:26.564Z,10.5
2022-11-12T08:21:28.862Z,10.5
2022-11-12T08:23:26.825Z,10.6
2022-11-12T08:25:27.002Z,10.6
2022-11-12T08:27:27.104Z,10.6
2022-11-12T08:29:27.357Z,10.6
2022-11-12T08:31:29.420Z,10.6
2022-11-12T08:33:27.614Z,10.6
2022-11-12T08:35:27.944Z,10.6
2022-11-12T08:37:28.057Z,10.6
2022-11-12T08:39:28.159Z,10.7
2022-11-12T08:41:29.403Z,10.7
2022-11-12T08:43:28.436Z,10.7
2022-11-12T08:45:28.659Z,10.7
2022-11-12T08:47:28.794Z,10.7
2022-11-12T08:49:29.395Z,10.8
2022-11-12T08:51:29.211Z,10.8
2022-11-12T08:53:29.256Z,10.8
2022-11-12T08:55:29.685Z,10.8
2022-11-12T08:57:29.708Z,10.8
2022-11-12T08:59:29.847Z,10.7
2022-11-12T09:01:29.980Z,10.7
2022-11-12T09:03:31.999Z,10.7
2022-11-12T09:05:30.460Z,10.7
2022-11-12T09:08:00.250Z,10.7
2022-11-12T09:09:30.636Z,10.8
2022-11-12T09:11:30.906Z,10.8
2022-11-12T09:13:31.446Z,10.8
2022-11-12T09:15:37.371Z,10.7
2022-11-12T09:17:31.525Z,10.8
2022-11-12T09:19:31.527Z,10.8
2022-11-12T09:21:31.715Z,10.8
2022-11-12T09:23:32.036Z,10.8
2022-11-12T09:25:32.448Z,10.8
2022-11-12T09:27:32.283Z,10.7
2022-11-12T09:29:32.444Z,10.7
2022-11-12T09:31:32.622Z,10.7
2022-11-12T09:33:35.153Z,10.7
2022-11-12T09:35:33.006Z,10.7
2022-11-12T09:37:33.248Z,10.8
2022-11-12T09:39:33.486Z,10.8
2022-11-12T09:41:41.097Z,10.8
2022-11-12T09:43:39.187Z,10.6
2022-11-12T09:45:43.927Z,10.6
2022-11-12T09:47:41.427Z,10.6
2022-11-12T09:49:39.678Z,10.6
2022-11-12T09:51:39.871Z,10.6
2022-11-12T09:53:44.436Z,10.6
2022-11-12T09:55:42.983Z,10.6
2022-11-12T09:57:34.898Z,10.6
2022-11-12T09:59:37.190Z,10.6
2022-11-12T10:01:46.173Z,10.6
2022-11-12T10:03:53.116Z,10.6
2022-11-12T10:05:43.009Z,10.6
2022-11-12T10:07:47.195Z,10.6
2022-11-12T10:09:42.383Z,10.6
2022-11-12T10:12:02.889Z,10.6
2022-11-12T10:13:49.653Z,10.5
2022-11-12T10:15:57.619Z,10.5
2022-11-12T10:17:49.378Z,10.6
2022-11-12T10:19:46.973Z,10.6
2022-11-12T10:21:44.635Z,10.6
2022-11-12T10:23:41.649Z,10.7
2022-11-12T10:25:38.682Z,10.8
2022-11-12T10:27:42.068Z,10.8
2022-11-12T10:29:44.316Z,10.8
2022-11-12T10:31:37.585Z,10.8
2022-11-12T10:33:37.686Z,10.9
2022-11-12T10:35:38.361Z,10.9
2022-11-12T10:37:43.886Z,10.9
2022-11-12T10:39:50.553Z,10.9
2022-11-12T10:41:40.504Z,10.9
2022-11-12T10:43:39.249Z,10.9
2022-11-12T10:45:38.888Z,10.9
2022-11-12T10:47:43.850Z,10.9
2022-11-12T10:49:39.488Z,10.9
2022-11-12T10:51:43.239Z,11.1
2022-11-12T10:53:47.391Z,11.1
2022-11-12T10:55:41.902Z,11.1
2022-11-12T10:57:41.529Z,11
2022-11-12T10:59:40.390Z,11
2022-11-12T11:01:45.370Z,11
2022-11-12T11:03:42.798Z,11
2022-11-12T11:05:45.887Z,11.2
2022-11-12T11:07:40.908Z,11.2
2022-11-12T11:09:41.363Z,11.3
2022-11-12T11:11:44.009Z,11.1
2022-11-12T11:13:42.268Z,11.1
2022-11-12T11:15:41.453Z,11
2022-11-12T11:17:41.562Z,11
2022-11-12T11:19:49.864Z,11.1
2022-11-12T11:21:58.886Z,11.1
2022-11-12T11:23:48.520Z,11
2022-11-12T11:25:43.655Z,11
2022-11-12T11:27:49.102Z,11.1
2022-11-12T11:29:56.151Z,11.1
2022-11-12T11:31:55.112Z,11.1
2022-11-12T11:33:54.667Z,11.1
2022-11-12T11:35:59.124Z,11.1
2022-11-12T11:37:46.655Z,11
2022-11-12T11:39:56.646Z,11
2022-11-12T11:41:58.631Z,11
2022-11-12T11:43:58.235Z,11
2022-11-12T11:45:59.289Z,11
2022-11-12T11:48:03.191Z,11.1
2022-11-12T11:49:59.657Z,10.9
2022-11-12T11:51:57.706Z,10.9
2022-11-12T11:53:54.428Z,10.9
2022-11-12T11:55:56.069Z,10.9
2022-11-12T11:57:57.015Z,10.8
2022-11-12T11:59:57.845Z,10.8
2022-11-12T12:01:59.257Z,10.8
2022-11-12T12:03:59.847Z,10.8
2022-11-12T12:05:54.890Z,10.8
2022-11-12T12:07:51.696Z,10.9
2022-11-12T12:09:57.625Z,10.9
2022-11-12T12:11:51.710Z,10.8
2022-11-12T12:13:57.986Z,10.8
2022-11-12T12:16:01.777Z,10.8
2022-11-12T12:18:00.018Z,10.8
2022-11-12T12:19:59.746Z,10.8
2022-11-12T12:21:50.485Z,10.8
2022-11-12T12:23:54.550Z,10.8
2022-11-12T12:25:53.113Z,10.8
2022-11-12T12:27:52.665Z,10.7
2022-11-12T12:29:53.488Z,10.7
2022-11-12T12:31:52.848Z,10.7
2022-11-12T12:33:56.198Z,10.7
2022-11-12T12:35:54.889Z,10.7
2022-11-12T12:37:53.461Z,10.7
2022-11-12T12:39:58.367Z,10.7
2022-11-12T12:41:57.253Z,10.7
2022-11-12T12:43:53.679Z,10.7
2022-11-12T12:45:54.874Z,10.7
2022-11-12T12:47:53.892Z,10.7
2022-11-12T12:49:52.965Z,10.7
2022-11-12T12:51:55.483Z,10.7
2022-11-12T12:53:50.843Z,10.7
2022-11-12T12:55:56.171Z,10.7
2022-11-12T12:57:52.164Z,10.7
2022-11-12T12:59:49.937Z,10.7
2022-11-12T13:01:51.158Z,10.8
2022-11-12T13:04:06.942Z,10.8
2022-11-12T13:05:52.068Z,10.8
2022-11-12T13:07:56.221Z,10.7
2022-11-12T13:09:50.557Z,10.7
2022-11-12T13:12:04.821Z,10.7
2022-11-12T13:13:52.858Z,10.7
2022-11-12T13:15:58.106Z,10.7
2022-11-12T13:18:05.865Z,10.7
2022-11-12T13:19:53.828Z,10.7
2022-11-12T13:21:51.479Z,10.7
2022-11-12T13:23:59.054Z,10.7
2022-11-12T13:25:53.288Z,10.7
2022-11-12T13:28:22.169Z,10.8
2022-11-12T13:29:56.420Z,10.8
2022-11-12T13:31:52.347Z,10.8
2022-11-12T13:33:52.635Z,10.7
2022-11-12T13:35:53.424Z,10.7
2022-11-12T13:37:57.873Z,10.7
2022-11-12T13:39:53.354Z,10.7
2022-11-12T13:41:53.565Z,10.8
2022-11-12T13:43:56.855Z,10.8
2022-11-12T13:45:59.112Z,10.8
2022-11-12T13:47:53.772Z,10.8
2022-11-12T13:49:54.233Z,10.9
2022-11-12T13:51:56.646Z,10.9
2022-11-12T13:53:54.123Z,10.9
2022-11-12T13:56:02.972Z,10.9
2022-11-12T13:57:54.541Z,10.9
2022-11-12T13:59:54.732Z,10.9
2022-11-12T14:01:55.511Z,10.9
2022-11-12T14:03:59.354Z,11.1
2022-11-12T14:06:01.741Z,11.2
2022-11-12T14:08:03.554Z,11.2
2022-11-12T14:10:09.578Z,11.1
2022-11-12T14:12:10.564Z,11.1
2022-11-12T14:14:09.408Z,11.1
2022-11-12T14:16:14.424Z,11.1
2022-11-12T14:18:05.685Z,11.1
2022-11-12T14:20:20.673Z,11.2
2022-11-12T14:21:56.340Z,11.1
2022-11-12T14:23:59.847Z,11.1
2022-11-12T14:26:06.104Z,11.1
2022-11-12T14:27:58.049Z,11.1
2022-11-12T14:29:57.221Z,11.1
2022-11-12T14:31:57.446Z,11.1
2022-11-12T14:33:57.241Z,11.1
2022-11-12T14:35:57.423Z,11.1
2022-11-12T14:38:04.027Z,11
2022-11-12T14:39:57.995Z,11
2022-11-12T14:41:58.913Z,11.2
2022-11-12T14:44:12.200Z,11.1
2022-11-12T14:46:02.262Z,11.1
2022-11-12T14:47:59.919Z,11
2022-11-12T14:50:02.249Z,11
2022-11-12T14:52:03.061Z,11
2022-11-12T14:54:03.589Z,11
2022-11-12T14:56:03.956Z,11
2022-11-12T14:57:59.272Z,11.1
2022-11-12T14:59:59.428Z,11.1
2022-11-12T15:02:32.542Z,11.1
2022-11-12T15:03:59.615Z,11.1
2022-11-12T15:06:10.840Z,11.1
2022-11-12T15:08:10.079Z,11
2022-11-12T15:10:00.390Z,11.1
2022-11-12T15:12:02.613Z,11.2
2022-11-12T15:14:02.596Z,11.2
2022-11-12T15:16:06.541Z,11.2
2022-11-12T15:18:00.926Z,11.3
2022-11-12T15:20:01.054Z,11.3
2022-11-12T15:22:03.457Z,11.3
2022-11-12T15:24:02.320Z,11.3
2022-11-12T15:26:14.266Z,11.4
2022-11-12T15:28:02.050Z,11.3
2022-11-12T15:30:02.066Z,11.3
2022-11-12T15:32:07.569Z,11.2
2022-11-12T15:34:02.172Z,11.2
2022-11-12T15:36:10.422Z,11.2
2022-11-12T15:38:02.789Z,11.2
2022-11-12T15:40:05.009Z,11.1
2022-11-12T15:42:10.355Z,11.1
2022-11-12T15:44:03.046Z,11.1
2022-11-12T15:46:04.548Z,11.2
2022-11-12T15:48:03.732Z,11.2
2022-11-12T15:50:05.667Z,11.2
2022-11-12T15:52:03.569Z,11.2
2022-11-12T15:54:03.781Z,11.2
2022-11-12T15:56:05.771Z,11.2
2022-11-12T15:58:06.653Z,11.1
2022-11-12T16:00:11.548Z,11.1
2022-11-12T16:02:04.318Z,11.1
2022-11-12T16:04:04.493Z,11.1
2022-11-12T16:06:08.985Z,11.2
2022-11-12T16:08:04.785Z,11.2
2022-11-12T16:10:05.105Z,11.1
2022-11-12T16:12:06.290Z,11.1
2022-11-12T16:14:05.308Z,11.1
2022-11-12T16:16:06.007Z,11.2
2022-11-12T16:18:07.026Z,11.2
2022-11-12T16:20:05.733Z,11.2
2022-11-12T16:22:05.827Z,11.2
2022-11-12T16:24:06.099Z,11.2
2022-11-12T16:26:06.268Z,11.1
2022-11-12T16:28:06.327Z,11
2022-11-12T16:30:06.616Z,11
2022-11-12T16:32:06.622Z,11
2022-11-12T16:34:07.017Z,11
2022-11-12T16:36:07.153Z,11
2022-11-12T16:38:08.841Z,11.1
2022-11-12T16:40:07.517Z,11.1
2022-11-12T16:42:07.511Z,11.1
2022-11-12T16:44:07.949Z,11.2
2022-11-12T16:46:07.838Z,11.2
2022-11-12T16:48:09.816Z,11.1
2022-11-12T16:50:08.165Z,11.1
2022-11-12T16:52:08.349Z,11.1
2022-11-12T16:54:08.415Z,11.1
2022-11-12T16:56:11.026Z,11.1
2022-11-12T16:58:08.811Z,11.1
2022-11-12T17:00:09.091Z,11.2
2022-11-12T17:02:09.166Z,11.2
2022-11-12T17:04:10.606Z,11.3
2022-11-12T17:06:09.437Z,11.3
2022-11-12T17:08:11.425Z,11.2
2022-11-12T17:10:09.771Z,11.2
2022-11-12T17:12:09.920Z,11.2
2022-11-12T17:14:10.087Z,11.2
2022-11-12T17:16:11.697Z,11.3
2022-11-12T17:18:10.466Z,11.2
2022-11-12T17:20:10.733Z,11.2
2022-11-12T17:22:10.762Z,11.2
2022-11-12T17:24:11.140Z,11.2
2022-11-12T17:26:14.833Z,11.2
2022-11-12T17:28:11.238Z,11.2
2022-11-12T17:30:11.337Z,11.2
2022-11-12T17:32:11.608Z,11.2
2022-11-12T17:34:11.888Z,11.2
2022-11-12T17:36:15.590Z,11.2
2022-11-12T17:38:12.068Z,11.1
2022-11-12T17:40:12.285Z,11.1
2022-11-12T17:42:12.381Z,11.2
2022-11-12T17:44:14.181Z,11.2
2022-11-12T17:46:12.968Z,11.2
2022-11-12T17:48:12.840Z,11.2
2022-11-12T17:50:13.579Z,11.2
2022-11-12T17:52:13.202Z,11
2022-11-12T17:54:13.409Z,11
2022-11-12T17:56:13.815Z,11
2022-11-12T17:58:13.758Z,11.1
2022-11-12T18:00:13.911Z,11.1
2022-11-12T18:02:13.997Z,11.2
2022-11-12T18:04:14.538Z,11.2
2022-11-12T18:06:14.964Z,11.2
2022-11-12T18:08:14.612Z,11.1
2022-11-12T18:10:19.383Z,11
2022-11-12T18:12:14.936Z,11
2022-11-12T18:14:20.844Z,11
2022-11-12T18:16:15.704Z,10.8
2022-11-12T18:18:17.216Z,10.8
2022-11-12T18:20:15.710Z,10.8
2022-11-12T18:22:15.805Z,10.8
2022-11-12T18:24:15.963Z,10.8
2022-11-12T18:26:16.138Z,10.8
2022-11-12T18:28:16.321Z,10.8
2022-11-12T18:30:19.524Z,10.8
2022-11-12T18:32:16.625Z,10.8
2022-11-12T18:34:16.851Z,10.7
2022-11-12T18:36:18.623Z,10.7
2022-11-12T18:38:17.287Z,10.8
2022-11-12T18:40:17.866Z,10.8
2022-11-12T18:42:18.036Z,10.8
2022-11-12T18:44:19.926Z,10.8
2022-11-12T18:46:18.624Z,10.8
2022-11-12T18:48:19.049Z,10.7
2022-11-12T18:50:18.861Z,10.7
2022-11-12T18:52:18.384Z,10.7
2022-11-12T18:54:18.788Z,10.7
2022-11-12T18:56:20.960Z,10.6
2022-11-12T18:58:18.729Z,10.6
2022-11-12T19:00:19.623Z,10.6
2022-11-12T19:02:19.000Z,10.6
2022-11-12T19:04:19.527Z,10.6
2022-11-12T19:06:21.145Z,10.8
2022-11-12T19:08:19.656Z,10.7
2022-11-12T19:10:20.720Z,10.7
2022-11-12T19:12:20.046Z,10.7
2022-11-12T19:14:19.941Z,10.6
2022-11-12T19:16:23.154Z,10.6
2022-11-12T19:18:20.336Z,10.6
2022-11-12T19:20:22.403Z,10.5
2022-11-12T19:22:20.676Z,10.5
2022-11-12T19:24:21.414Z,10.5
2022-11-12T19:26:22.247Z,10.5
2022-11-12T19:28:20.998Z,10.5
2022-11-12T19:30:22.790Z,10.4
2022-11-12T19:32:21.318Z,10.4
2022-11-12T19:34:21.548Z,10.3
2022-11-12T19:36:24.402Z,10.3
2022-11-12T19:38:21.760Z,10.2
2022-11-12T19:40:23.318Z,10.1
2022-11-12T19:42:21.994Z,10.1
2022-11-12T19:44:22.133Z,10.1
2022-11-12T19:46:22.803Z,10.1
2022-11-12T19:48:22.406Z,10.2
2022-11-12T19:50:24.861Z,10.2
2022-11-12T19:52:22.669Z,10.2
2022-11-12T19:54:22.943Z,10.2
2022-11-12T19:56:23.010Z,10.2
2022-11-12T19:58:23.111Z,10.1
2022-11-12T20:00:24.887Z,10.1
2022-11-12T20:02:26.305Z,10.1
2022-11-12T20:04:24.438Z,10.1
2022-11-12T20:06:25.974Z,10.1
2022-11-12T20:08:24.050Z,10.2
2022-11-12T20:10:24.265Z,10.2
2022-11-12T20:12:24.271Z,10.2
2022-11-12T20:14:24.227Z,10.2
2022-11-12T20:16:26.840Z,10.2
2022-11-12T20:18:24.722Z,10.2
2022-11-12T20:20:25.523Z,10.2
2022-11-12T20:22:29.296Z,10.2
2022-11-12T20:24:24.977Z,10.2
2022-11-12T20:26:26.875Z,10.3
2022-11-12T20:28:25.495Z,10.3
2022-11-12T20:30:26.228Z,10.3
2022-11-12T20:32:25.554Z,10.3
2022-11-12T20:34:26.146Z,10.4
2022-11-12T20:36:27.808Z,10.4
2022-11-12T20:38:26.336Z,10.4
2022-11-12T20:40:26.021Z,10.4
2022-11-12T20:42:26.175Z,10.4
2022-11-12T20:44:26.419Z,10.4
2022-11-12T20:46:27.442Z,10.4
2022-11-12T20:48:26.971Z,10.2
2022-11-12T20:50:26.807Z,10.2
2022-11-12T20:52:26.934Z,10.2
2022-11-12T20:54:27.324Z,10.2
2022-11-12T20:56:29.144Z,10.2
2022-11-12T20:58:27.745Z,10.3
2022-11-12T21:00:28.891Z,10.3
2022-11-12T21:02:27.700Z,10.3
2022-11-12T21:04:28.005Z,10.3
2022-11-12T21:06:30.026Z,10.3
2022-11-12T21:08:28.502Z,10.2
2022-11-12T21:10:28.451Z,10.2
2022-11-12T21:12:28.585Z,10.1
2022-11-12T21:14:28.790Z,10.1
2022-11-12T21:16:29.520Z,10.1
2022-11-12T21:18:29.154Z,10.1
2022-11-12T21:20:29.490Z,10.1
2022-11-12T21:22:29.225Z,10.1
2022-11-12T21:24:29.337Z,10.1
2022-11-12T21:26:31.333Z,10.1
2022-11-12T21:28:30.090Z,10.2
2022-11-12T21:30:30.272Z,10.2
2022-11-12T21:32:29.933Z,10.2
2022-11-12T21:34:30.150Z,10.2
2022-11-12T21:36:30.262Z,10.2
2022-11-12T21:38:30.831Z,10
2022-11-12T21:40:31.891Z,10
2022-11-12T21:42:30.830Z,10
2022-11-12T21:44:30.771Z,10
2022-11-12T21:46:33.248Z,10
2022-11-12T21:48:31.086Z,10
2022-11-12T21:50:31.610Z,10
2022-11-12T21:52:31.391Z,10
2022-11-12T21:54:31.454Z,9.8
2022-11-12T21:56:32.386Z,9.6
2022-11-12T21:58:31.776Z,9.7
2022-11-12T22:00:41.953Z,9.7
2022-11-12T22:02:33.106Z,9.7
2022-11-12T22:04:32.160Z,9.7
2022-11-12T22:06:33.937Z,9.7
2022-11-12T22:08:32.283Z,9.6
2022-11-12T22:10:32.565Z,9.6
2022-11-12T22:12:32.664Z,9.6
2022-11-12T22:14:32.652Z,9.6
2022-11-12T22:16:34.155Z,9.6
2022-11-12T22:18:32.795Z,9.7
2022-11-12T22:20:32.990Z,9.7
2022-11-12T22:22:33.044Z,9.7
2022-11-12T22:24:33.123Z,9.7
2022-11-12T22:26:35.210Z,9.7
2022-11-12T22:28:33.320Z,9.6
2022-11-12T22:30:33.420Z,9.6
2022-11-12T22:32:33.595Z,9.6
2022-11-12T22:34:33.582Z,9.6
2022-11-12T22:36:35.477Z,9.5
2022-11-12T22:38:33.837Z,9.5
2022-11-12T22:40:33.921Z,9.5
2022-11-12T22:42:33.935Z,9.7
2022-11-12T22:44:34.016Z,9.7
2022-11-12T22:46:35.901Z,9.7
2022-11-12T22:48:34.218Z,9.6
2022-11-12T22:50:34.485Z,9.6
2022-11-12T22:52:34.526Z,9.5
2022-11-12T22:54:34.529Z,9.5
2022-11-12T22:56:34.754Z,9.6
2022-11-12T22:58:34.940Z,9.6
2022-11-12T23:00:43.366Z,9.6
2022-11-12T23:02:35.198Z,9.6
2022-11-12T23:04:35.128Z,9.4
2022-11-12T23:06:35.269Z,9.4
2022-11-12T23:08:35.281Z,9.4
2022-11-12T23:10:35.459Z,9.4
2022-11-12T23:12:35.470Z,9.4
2022-11-12T23:14:35.719Z,9.4
2022-11-12T23:16:37.802Z,9.4
2022-11-12T23:18:35.799Z,9.5
2022-11-12T23:20:36.131Z,9.3
2022-11-12T23:22:36.068Z,9.3
2022-11-12T23:24:36.265Z,9.4
2022-11-12T23:26:38.817Z,9.4
2022-11-12T23:28:36.312Z,9.4
2022-11-12T23:30:36.345Z,9.4
2022-11-12T23:32:36.605Z,9.4
2022-11-12T23:34:36.624Z,9.3
2022-11-12T23:36:37.893Z,9.4
2022-11-12T23:38:36.836Z,9.4
2022-11-12T23:40:37.010Z,9.4
2022-11-12T23:42:37.137Z,9.4
2022-11-12T23:44:37.142Z,9.4
2022-11-12T23:46:37.839Z,9.3
2022-11-12T23:48:37.474Z,9.3
2022-11-12T23:50:37.476Z,9.2
2022-11-12T23:52:37.489Z,9.3
2022-11-12T23:54:37.582Z,9.3
2022-11-12T23:56:37.700Z,9.1
2022-11-12T23:58:37.773Z,9.1
